Log in

NYSE:AEOAmerican Eagle Outfitters Institutional Ownership

$10.30
+0.77 (+8.08 %)
(As of 05/27/2020 04:00 PM ET)
Add
Compare
Today's Range
$9.84
Now: $10.30
$10.39
50-Day Range
$6.73
MA: $8.33
$9.63
52-Week Range
$6.53
Now: $10.30
$19.90
Volume10.74 million shs
Average Volume6.17 million shs
Market Capitalization$1.70 billion
P/E Ratio9.20
Dividend YieldN/A
Beta1.12

Institutional Ownership

Institutional Ownership Changes (13F Filings) for American Eagle Outfitters (NYSE:AEO)

Institutional Ownership Percentage: 87.44%

Institutional Buying and Selling by Quarter


American Eagle Outfitters (NYSE AEO) Institutional Buying and Selling

Reporting DateHedge FundShares HeldMarket Value% of PortfolioQuarterly Change in SharesOwnership in Company
5/26/2020Morgan Stanley306,619$2.44M0.0%-79.2%0.185%
5/26/2020Verus Capital Partners LLC9,772$78K0.0%+91.7%0.006%
5/23/2020The Manufacturers Life Insurance Company 322,713$2.57M0.0%+2.2%0.195%
5/22/2020FDx Advisors Inc.31,658$0.72M0.0%+172.2%0.019%
5/18/2020RBF Capital LLC30,000$0.24M0.0%N/A0.018%
5/18/2020Prentice Capital Management LP1,248,177$9.92M4.7%N/A0.754%
5/18/2020Voloridge Investment Management LLC31,600$0.25M0.0%-91.7%0.019%
5/18/2020Advisor Group Holdings Inc.38,714$0.31M0.0%N/A0.023%
5/15/2020AQR Capital Management LLC1,935,808$15.39M0.0%-26.3%1.170%
5/15/2020Engineers Gate Manager LP65,153$0.52M0.0%-6.4%0.039%
5/15/2020Invesco Ltd.1,315,582$10.46M0.0%+12.6%0.795%
5/15/2020Tudor Investment Corp Et Al56,704$0.45M0.0%+4.6%0.034%
5/15/2020Schroder Investment Management Group33,299$0.27M0.0%N/A0.020%
5/15/2020Morgan Stanley306,619$2.44M0.0%-79.2%0.185%
5/15/2020Cloverdale Capital Management LLC277,994$2.21M1.7%N/A0.168%
5/15/2020United Capital Financial Advisers LLC160,786$1.28M0.0%+8.5%0.097%
5/15/2020Maverick Capital Ltd.65,436$0.52M0.0%N/A0.040%
5/15/2020Two Sigma Advisers LP283,210$2.25M0.0%N/A0.171%
5/15/2020Cipher Capital LP70,055$0.56M0.2%N/A0.042%
5/15/2020Magnetar Financial LLC14,402$0.11M0.0%-40.4%0.009%
5/15/2020Thrivent Financial for Lutherans230,038$1.83M0.0%+454.3%0.139%
5/14/2020O Shares Investment Advisers LLC35,667$0.28M0.1%-7.1%0.022%
5/14/2020Wells Fargo & Company MN2,265,141$18.01M0.0%-9.7%1.369%
5/14/2020Teton Advisors Inc.17,600$0.14M0.0%+18.9%0.011%
5/14/2020Geode Capital Management LLC2,224,207$17.68M0.0%+6.7%1.344%
5/14/2020Commonwealth of Pennsylvania Public School Empls Retrmt SYS37,366$0.30M0.0%+33.4%0.023%
5/14/2020Majedie Asset Management Ltd51,658$0.41M0.0%N/A0.031%
5/14/2020Wellington Management Group LLP399,082$3.17M0.0%-84.4%0.241%
5/14/2020Nomura Asset Management Co. Ltd.568,400$4.52M0.0%N/A0.343%
5/14/2020Deutsche Bank AG142,544$1.13M0.0%+87.4%0.086%
5/14/2020Dean Capital Management49,290$0.39M0.6%-15.7%0.030%
5/14/2020NWQ Investment Management Company LLC1,500,664$11.93M0.5%+34.2%0.907%
5/14/2020S&T Bank PA481,054$3.82M1.1%N/A0.291%
5/14/2020D.C. Capital Advisors Ltd500,000$3.98M26.5%-37.5%0.302%
5/14/2020ETF Managers Group LLC13,226$0.11M0.0%+11.4%0.008%
5/14/2020Nuveen Asset Management LLC643,878$5.12M0.0%+2.0%0.389%
5/13/2020Canada Pension Plan Investment Board226,400$1.80M0.0%-12.1%0.137%
5/13/2020White Pine Capital LLC33,330$0.27M0.1%-22.9%0.020%
5/13/2020FDx Advisors Inc.31,658$0.72M0.0%+172.2%0.019%
5/13/2020AlphaCrest Capital Management LLC18,104$0.14M0.0%-31.7%0.011%
5/13/2020Parametric Portfolio Associates LLC715,509$5.69M0.0%+92.0%0.432%
5/13/2020Connor Clark & Lunn Investment Management Ltd.153,818$1.22M0.0%N/A0.093%
5/13/2020BNP Paribas Arbitrage SA72,567$0.58M0.0%-49.7%0.044%
5/13/2020Horizon Kinetics Asset Management LLC17,050$0.14M0.0%-11.4%0.010%
5/13/2020Oak Ridge Investments LLC436,068$3.47M0.4%-4.2%0.263%
5/13/2020Federated Hermes Inc.44,846$0.36M0.0%-10.3%0.027%
5/13/2020Franklin Resources Inc.2,501,305$19.89M0.0%N/A1.511%
5/12/2020Systematic Financial Management LP1,395,388$11.09M0.7%-1.0%0.843%
5/12/2020Vident Investment Advisory LLC35,667$0.28M0.0%N/A0.022%
5/12/2020Principal Financial Group Inc.540,590$4.30M0.0%-26.1%0.327%
5/12/2020Victory Capital Management Inc.2,537,653$20.17M0.0%-1.9%1.533%
5/12/2020Ceredex Value Advisors LLC313,025$2.49M0.0%-89.8%0.189%
5/12/2020Quinn Opportunity Partners LLC20,000$0.16M0.0%+100.0%0.012%
5/12/2020GSA Capital Partners LLP12,753$0.10M0.0%N/A0.008%
5/12/2020JPMorgan Chase & Co.293,463$2.33M0.0%-30.2%0.177%
5/12/2020Paradigm Capital Management Inc. NY235,400$1.87M0.2%+4.4%0.142%
5/12/2020Virginia Retirement Systems ET AL52,200$0.42M0.0%-21.6%0.032%
5/11/2020Carillon Tower Advisers Inc.1,207,250$9.60M0.1%-12.6%0.729%
5/11/2020Bridge City Capital LLC108,203$0.86M0.4%+13.7%0.065%
5/11/2020South Dakota Investment Council220,747$1.76M0.0%+6.6%0.133%
5/11/2020State Street Corp5,604,436$44.56M0.0%+5.8%3.386%
5/11/2020WINTON GROUP Ltd135,450$1.08M0.0%-3.6%0.082%
5/11/2020Mutual of America Capital Management LLC152,718$1.21M0.0%+3.1%0.092%
5/8/2020Northwestern Mutual Investment Management Company LLC55,154$0.44M0.0%+21.6%0.033%
5/8/2020Trexquant Investment LP55,369$0.44M0.0%N/A0.033%
5/8/2020Hancock Whitney Corp102,978$0.82M0.0%+101.2%0.062%
5/8/2020Alberta Investment Management Corp100,400$0.80M0.0%-43.8%0.061%
5/8/2020Foundry Partners LLC31,635$0.25M0.0%-8.5%0.019%
5/8/2020WBI Investments Inc.33,306$0.27M0.1%N/A0.020%
5/8/2020PNC Financial Services Group Inc.25,073$0.20M0.0%+43.6%0.015%
5/8/2020Swiss National Bank311,300$2.48M0.0%-0.6%0.188%
5/8/2020Aigen Investment Management LP98,352$0.78M0.1%+205.5%0.059%
5/8/2020Wasatch Advisors Inc.847,756$6.74M0.1%+26.8%0.512%
5/7/2020Moody Aldrich Partners LLC54,098$0.43M0.1%+114.1%0.033%
5/7/2020AE Wealth Management LLC44,722$0.36M0.0%N/A0.027%
5/6/2020Zurcher Kantonalbank Zurich Cantonalbank 17,667$0.14M0.0%+84.9%0.011%
5/6/2020First Trust Advisors LP274,535$2.18M0.0%+3.9%0.166%
5/6/2020Russell Investments Group Ltd.316,766$2.52M0.0%+60.2%0.191%
5/6/2020Bank of New York Mellon Corp3,371,973$26.81M0.0%+9.1%2.037%
5/6/2020Rhumbline Advisers484,733$3.85M0.0%-6.1%0.293%
5/6/2020New York State Common Retirement Fund186,176$1.48M0.0%+4.6%0.112%
5/6/2020Alps Advisors Inc.60,413$0.48M0.0%N/A0.037%
5/5/2020Arizona State Retirement System37,683$0.30M0.0%-58.2%0.023%
5/5/2020Investors Research Corp70,117$0.56M0.3%-2.0%0.042%
5/5/2020Aperio Group LLC139,049$1.11M0.0%-21.9%0.084%
5/4/2020Los Angeles Capital Management & Equity Research Inc.44,284$0.35M0.0%-79.1%0.027%
5/4/2020American International Group Inc.400,228$3.18M0.0%-0.9%0.242%
5/4/2020First Dallas Securities Inc.46,450$0.37M0.5%+126.6%0.028%
5/4/2020Hodges Capital Management Inc.569,008$4.52M1.2%+6.0%0.344%
5/4/2020Victory Capital Management Inc.2,537,653$20.17M0.0%-1.9%1.533%
5/1/2020BlackRock Inc.17,813,900$141.62M0.0%-4.9%10.764%
5/1/2020State of Michigan Retirement System44,075$0.35M0.0%-5.8%0.027%
5/1/2020UBS Group AG31,839$0.25M0.0%-142.9%0.019%
4/30/2020Emerald Advisers LLC22,752$0.18M0.0%-98.2%0.014%
4/29/2020Brinker Capital Inc.55,631$0.44M0.0%+10.8%0.034%
4/29/2020Diligent Investors LLC10,775$86K0.1%-15.3%0.007%
4/29/2020Dupont Capital Management Corp53,075$0.42M0.0%+143.8%0.032%
4/29/2020New York State Teachers Retirement System271,388$2.16M0.0%-13.4%0.164%
4/28/2020State of Michigan Retirement System350$44K0.0%-99.3%0.000%
4/27/2020Texas Permanent School Fund135,290$1.08M0.0%+24.5%0.082%
(Data available from 1/1/2016 forward)
This page was last updated on 5/28/2020 by MarketBeat.com Staff

Enter your email address below to receive a concise daily summary of analysts' upgrades, downgrades and new coverage with MarketBeat.com's FREE daily email newsletter.